sensor_id;sensor_type;location;lat;lon;timestamp;pressure;altitude;pressure_sealevel;temperature;humidity
18819;BME280;9537;45.594;9.294;2023-03-01T00:00:42;100110.34;;;3.23;78.10
18819;BME280;9537;45.594;9.294;2023-03-01T00:01:47;100112.47;;;3.18;78.07
18819;BME280;9537;45.594;9.294;2023-03-01T00:02:49;100108.69;;;3.22;78.18
18819;BME280;9537;45.594;9.294;2023-03-01T00:03:52;100106.19;;;3.21;78.38
18819;BME280;9537;45.594;9.294;2023-03-01T00:04:53;100110.47;;;3.22;78.17
18819;BME280;9537;45.594;9.294;2023-03-01T00:05:55;100107.38;;;3.28;78.42
18819;BME280;9537;45.594;9.294;2023-03-01T00:06:57;100102.16;;;3.28;78.08
18819;BME280;9537;45.594;9.294;2023-03-01T00:07:59;100108.44;;;3.25;78.08
18819;BME280;9537;45.594;9.294;2023-03-01T00:09:00;100096.94;;;3.28;77.80
18819;BME280;9537;45.594;9.294;2023-03-01T00:10:02;100104.91;;;3.26;78.20
18819;BME280;9537;45.594;9.294;2023-03-01T00:11:05;100100.50;;;3.27;78.03
18819;BME280;9537;45.594;9.294;2023-03-01T00:12:07;100103.81;;;3.29;78.20
18819;BME280;9537;45.594;9.294;2023-03-01T00:13:08;100107.38;;;3.28;77.72
18819;BME280;9537;45.594;9.294;2023-03-01T00:14:12;100104.91;;;3.26;78.30
18819;BME280;9537;45.594;9.294;2023-03-01T00:15:14;100105.72;;;3.27;78.20
18819;BME280;9537;45.594;9.294;2023-03-01T00:16:18;100099.78;;;3.25;78.39
18819;BME280;9537;45.594;9.294;2023-03-01T00:17:19;100095.63;;;3.22;78.62
18819;BME280;9537;45.594;9.294;2023-03-01T00:18:21;100098.81;;;3.26;78.07
18819;BME280;9537;45.594;9.294;2023-03-01T00:19:23;100094.34;;;3.28;78.47
18819;BME280;9537;45.594;9.294;2023-03-01T00:20:25;100102.41;;;3.25;78.00
18819;BME280;9537;45.594;9.294;2023-03-01T00:21:27;100098.81;;;3.26;78.11
18819;BME280;9537;45.594;9.294;2023-03-01T00:22:29;100098.81;;;3.26;78.12
18819;BME280;9537;45.594;9.294;2023-03-01T00:23:30;100094.56;;;3.25;78.30
18819;BME280;9537;45.594;9.294;2023-03-01T00:24:33;100098.22;;;3.22;78.23
18819;BME280;9537;45.594;9.294;2023-03-01T00:25:41;100095.75;;;3.21;78.44
18819;BME280;9537;45.594;9.294;2023-03-01T00:26:43;100098.22;;;3.22;78.61
18819;BME280;9537;45.594;9.294;2023-03-01T00:27:46;100090.13;;;3.14;78.27
18819;BME280;9537;45.594;9.294;2023-03-01T00:28:48;100092.66;;;3.15;78.66
18819;BME280;9537;45.594;9.294;2023-03-01T00:29:52;100086.94;;;3.10;78.94
18819;BME280;9537;45.594;9.294;2023-03-01T00:30:53;100087.03;;;3.09;78.98
18819;BME280;9537;45.594;9.294;2023-03-01T00:31:54;100093.72;;;3.13;79.05
18819;BME280;9537;45.594;9.294;2023-03-01T00:32:56;100085.16;;;3.11;78.83
18819;BME280;9537;45.594;9.294;2023-03-01T00:34:00;100086.09;;;3.10;78.51
18819;BME280;9537;45.594;9.294;2023-03-01T00:35:02;100089.53;;;3.10;78.52
18819;BME280;9537;45.594;9.294;2023-03-01T00:36:06;100092.38;;;3.07;78.73
18819;BME280;9537;45.594;9.294;2023-03-01T00:37:08;100092.16;;;3.10;78.75
18819;BME280;9537;45.594;9.294;2023-03-01T00:38:10;100092.88;;;3.12;78.50
18819;BME280;9537;45.594;9.294;2023-03-01T00:39:15;100095.13;;;3.17;78.67
18819;BME280;9537;45.594;9.294;2023-03-01T00:40:17;100084.91;;;3.14;78.83
18819;BME280;9537;45.594;9.294;2023-03-01T00:41:19;100090.13;;;3.14;78.52
18819;BME280;9537;45.594;9.294;2023-03-01T00:42:23;100084.91;;;3.14;78.28
18819;BME280;9537;45.594;9.294;2023-03-01T00:43:24;100086.94;;;3.10;78.19
18819;BME280;9537;45.594;9.294;2023-03-01T00:44:26;100080.06;;;3.09;78.62
18819;BME280;9537;45.594;9.294;2023-03-01T00:45:30;100076.00;;;3.05;78.16
18819;BME280;9537;45.594;9.294;2023-03-01T00:46:32;100082.91;;;3.06;78.13
18819;BME280;9537;45.594;9.294;2023-03-01T00:47:34;100074.44;;;3.03;78.15
18819;BME280;9537;45.594;9.294;2023-03-01T00:48:36;100082.50;;;3.00;78.35
18819;BME280;9537;45.594;9.294;2023-03-01T00:49:37;100081.69;;;2.99;78.60
18819;BME280;9537;45.594;9.294;2023-03-01T00:50:40;100078.97;;;3.01;78.63
18819;BME280;9537;45.594;9.294;2023-03-01T00:51:41;100071.97;;;3.01;78.32
18819;BME280;9537;45.594;9.294;2023-03-01T00:52:43;100070.19;;;3.02;78.76
18819;BME280;9537;45.594;9.294;2023-03-01T00:53:45;100073.75;;;3.01;78.25
18819;BME280;9537;45.594;9.294;2023-03-01T00:54:47;100072.53;;;2.93;78.89
18819;BME280;9537;45.594;9.294;2023-03-01T00:55:48;100065.66;;;2.92;79.41
18819;BME280;9537;45.594;9.294;2023-03-01T00:56:50;100067.31;;;2.93;79.08
18819;BME280;9537;45.594;9.294;2023-03-01T00:57:51;100062.22;;;2.92;78.58
18819;BME280;9537;45.594;9.294;2023-03-01T00:58:53;100058.66;;;2.93;79.15
18819;BME280;9537;45.594;9.294;2023-03-01T00:59:54;100058.75;;;2.91;78.67
18819;BME280;9537;45.594;9.294;2023-03-01T01:00:58;100059.81;;;2.89;79.01
18819;BME280;9537;45.594;9.294;2023-03-01T01:01:59;100059.81;;;2.89;78.70
18819;BME280;9537;45.594;9.294;2023-03-01T01:03:01;100048.78;;;2.85;78.73
18819;BME280;9537;45.594;9.294;2023-03-01T01:04:04;100055.91;;;2.83;79.09
18819;BME280;9537;45.594;9.294;2023-03-01T01:05:07;100043.91;;;2.81;79.37
18819;BME280;9537;45.594;9.294;2023-03-01T01:06:13;100047.44;;;2.80;79.36
18819;BME280;9537;45.594;9.294;2023-03-01T01:07:14;100044.63;;;2.83;79.49
18819;BME280;9537;45.594;9.294;2023-03-01T01:08:17;100044.53;;;2.84;79.46
18819;BME280;9537;45.594;9.294;2023-03-01T01:09:18;100042.50;;;2.88;79.19
18819;BME280;9537;45.594;9.294;2023-03-01T01:10:20;100040.03;;;2.86;79.46
18819;BME280;9537;45.594;9.294;2023-03-01T01:11:22;100039.31;;;2.84;79.08
18819;BME280;9537;45.594;9.294;2023-03-01T01:12:25;100040.94;;;2.85;79.07
18819;BME280;9537;45.594;9.294;2023-03-01T01:13:26;100036.56;;;2.86;78.76
18819;BME280;9537;45.594;9.294;2023-03-01T01:14:28;100033.84;;;2.87;79.05
18819;BME280;9537;45.594;9.294;2023-03-01T01:15:33;100042.72;;;2.85;78.75
18819;BME280;9537;45.594;9.294;2023-03-01T01:16:37;100035.03;;;2.83;78.97
18819;BME280;9537;45.594;9.294;2023-03-01T01:17:38;100030.88;;;2.81;78.93
18819;BME280;9537;45.594;9.294;2023-03-01T01:18:40;100031.69;;;2.81;79.28
18819;BME280;9537;45.594;9.294;2023-03-01T01:19:41;100024.94;;;2.79;79.44
18819;BME280;9537;45.594;9.294;2023-03-01T01:20:43;100025.66;;;2.81;79.21
18819;BME280;9537;45.594;9.294;2023-03-01T01:21:44;100015.69;;;2.86;79.56
18819;BME280;9537;45.594;9.294;2023-03-01T01:22:48;100022.34;;;2.90;79.29
18819;BME280;9537;45.594;9.294;2023-03-01T01:23:50;100017.13;;;2.90;78.79
18819;BME280;9537;45.594;9.294;2023-03-01T01:24:52;100011.44;;;2.85;79.07
18819;BME280;9537;45.594;9.294;2023-03-01T01:25:53;100016.66;;;2.85;78.96
18819;BME280;9537;45.594;9.294;2023-03-01T01:26:55;100014.88;;;2.85;78.96
18819;BME280;9537;45.594;9.294;2023-03-01T01:27:56;100013.94;;;2.86;78.79
18819;BME280;9537;45.594;9.294;2023-03-01T01:29:00;100010.47;;;2.86;78.79
18819;BME280;9537;45.594;9.294;2023-03-01T01:30:01;100004.44;;;2.85;78.83
18819;BME280;9537;45.594;9.294;2023-03-01T01:31:04;100000.28;;;2.83;79.16
18819;BME280;9537;45.594;9.294;2023-03-01T01:32:06;100003.00;;;2.81;79.02
18819;BME280;9537;45.594;9.294;2023-03-01T01:33:08;100004.66;;;2.82;79.06
18819;BME280;9537;45.594;9.294;2023-03-01T01:34:14;100001.13;;;2.83;78.57
18819;BME280;9537;45.594;9.294;2023-03-01T01:35:16;99997.78;;;2.81;78.79
18819;BME280;9537;45.594;9.294;2023-03-01T01:36:18;99996.09;;;2.80;79.39
18819;BME280;9537;45.594;9.294;2023-03-01T01:37:20;99996.97;;;2.81;79.04
18819;BME280;9537;45.594;9.294;2023-03-01T01:38:21;99996.25;;;2.79;79.43
18819;BME280;9537;45.594;9.294;2023-03-01T01:39:23;99994.22;;;2.82;79.04
18819;BME280;9537;45.594;9.294;2023-03-01T01:40:24;99993.50;;;2.80;79.66
18819;BME280;9537;45.594;9.294;2023-03-01T01:41:28;99990.69;;;2.83;79.21
18819;BME280;9537;45.594;9.294;2023-03-01T01:42:29;99993.16;;;2.85;79.10
18819;BME280;9537;45.594;9.294;2023-03-01T01:43:35;99987.84;;;2.86;79.08
18819;BME280;9537;45.594;9.294;2023-03-01T01:44:36;99984.38;;;2.86;79.20
18819;BME280;9537;45.594;9.294;2023-03-01T01:45:40;99985.34;;;2.85;78.80
18819;BME280;9537;45.594;9.294;2023-03-01T01:46:43;99980.94;;;2.85;78.92
18819;BME280;9537;45.594;9.294;2023-03-01T01:47:47;99987.13;;;2.84;78.92
18819;BME280;9537;45.594;9.294;2023-03-01T01:48:52;99984.63;;;2.83;78.92
18819;BME280;9537;45.594;9.294;2023-03-01T01:49:56;99982.88;;;2.83;79.08
18819;BME280;9537;45.594;9.294;2023-03-01T01:51:00;99982.72;;;2.85;79.05
18819;BME280;9537;45.594;9.294;2023-03-01T01:52:07;99984.38;;;2.86;78.61
18819;BME280;9537;45.594;9.294;2023-03-01T01:53:13;99975.63;;;2.87;79.28
18819;BME280;9537;45.594;9.294;2023-03-01T01:54:21;99980.72;;;2.88;79.63
18819;BME280;9537;45.594;9.294;2023-03-01T01:55:26;99974.09;;;2.84;79.48
18819;BME280;9537;45.594;9.294;2023-03-01T01:56:29;99973.94;;;2.86;79.24
18819;BME280;9537;45.594;9.294;2023-03-01T01:57:34;99974.41;;;2.80;78.97
18819;BME280;9537;45.594;9.294;2023-03-01T01:58:38;99970.75;;;2.82;78.81
18819;BME280;9537;45.594;9.294;2023-03-01T01:59:42;99973.72;;;2.78;78.78
18819;BME280;9537;45.594;9.294;2023-03-01T02:00:46;99974.41;;;2.80;78.58
18819;BME280;9537;45.594;9.294;2023-03-01T02:01:48;99973.81;;;2.76;78.50
18819;BME280;9537;45.594;9.294;2023-03-01T02:02:56;99966.81;;;2.77;78.76
18819;BME280;9537;45.594;9.294;2023-03-01T02:03:58;99978.94;;;2.78;78.92
18819;BME280;9537;45.594;9.294;2023-03-01T02:05:04;99972.03;;;2.77;79.26
18819;BME280;9537;45.594;9.294;2023-03-01T02:06:15;99962.31;;;2.79;78.97
18819;BME280;9537;45.594;9.294;2023-03-01T02:07:20;99970.97;;;2.79;79.16
18819;BME280;9537;45.594;9.294;2023-03-01T02:08:24;99969.19;;;2.80;78.73
18819;BME280;9537;45.594;9.294;2023-03-01T02:09:28;99962.66;;;2.74;78.71
18819;BME280;9537;45.594;9.294;2023-03-01T02:10:32;99961.84;;;2.74;79.07
18819;BME280;9537;45.594;9.294;2023-03-01T02:11:36;99963.97;;;2.80;78.85
18819;BME280;9537;45.594;9.294;2023-03-01T02:12:38;99961.38;;;2.80;79.05
18819;BME280;9537;45.594;9.294;2023-03-01T02:13:42;99957.22;;;2.77;78.92
18819;BME280;9537;45.594;9.294;2023-03-01T02:14:44;99961.50;;;2.78;79.62
18819;BME280;9537;45.594;9.294;2023-03-01T02:15:46;99960.44;;;2.81;79.04
18819;BME280;9537;45.594;9.294;2023-03-01T02:16:47;99951.75;;;2.80;79.37
18819;BME280;9537;45.594;9.294;2023-03-01T02:17:52;99952.63;;;2.81;79.55
18819;BME280;9537;45.594;9.294;2023-03-01T02:18:54;99954.50;;;2.79;79.54
18819;BME280;9537;45.594;9.294;2023-03-01T02:20:07;99945.94;;;2.77;79.00
18819;BME280;9537;45.594;9.294;2023-03-01T02:22:37;99953.44;;;2.81;79.32
18819;BME280;9537;45.594;9.294;2023-03-01T02:23:40;99952.63;;;2.81;79.80
18819;BME280;9537;45.594;9.294;2023-03-01T02:24:50;99951.31;;;2.75;79.64
18819;BME280;9537;45.594;9.294;2023-03-01T02:26:02;99951.06;;;2.78;79.47
18819;BME280;9537;45.594;9.294;2023-03-01T02:27:09;99948.56;;;2.77;79.74
18819;BME280;9537;45.594;9.294;2023-03-01T02:28:36;99951.91;;;2.79;79.75
18819;BME280;9537;45.594;9.294;2023-03-01T02:29:39;99947.50;;;2.79;79.81
18819;BME280;9537;45.594;9.294;2023-03-01T02:30:41;99945.72;;;2.80;79.70
18819;BME280;9537;45.594;9.294;2023-03-01T02:32:06;99945.84;;;2.78;79.91
18819;BME280;9537;45.594;9.294;2023-03-01T02:33:07;99943.34;;;2.77;80.20
18819;BME280;9537;45.594;9.294;2023-03-01T02:34:12;99945.03;;;2.78;80.12
18819;BME280;9537;45.594;9.294;2023-03-01T02:35:16;99940.50;;;2.80;80.03
18819;BME280;9537;45.594;9.294;2023-03-01T02:36:20;99937.63;;;2.71;80.36
18819;BME280;9537;45.594;9.294;2023-03-01T02:37:25;99940.97;;;2.74;80.37
18819;BME280;9537;45.594;9.294;2023-03-01T02:38:27;99940.88;;;2.75;80.16
18819;BME280;9537;45.594;9.294;2023-03-01T02:39:33;99938.13;;;2.77;79.91
18819;BME280;9537;45.594;9.294;2023-03-01T02:40:35;99940.50;;;2.80;79.93
18819;BME280;9537;45.594;9.294;2023-03-01T02:41:42;99935.41;;;2.78;79.90
18819;BME280;9537;45.594;9.294;2023-03-01T02:42:47;99932.91;;;2.77;80.09
18819;BME280;9537;45.594;9.294;2023-03-01T02:43:52;99937.53;;;2.73;79.93
18819;BME280;9537;45.594;9.294;2023-03-01T02:44:53;99927.81;;;2.75;79.79
18819;BME280;9537;45.594;9.294;2023-03-01T02:45:58;99926.88;;;2.76;80.24
18819;BME280;9537;45.594;9.294;2023-03-01T02:47:02;99931.38;;;2.74;80.33
18819;BME280;9537;45.594;9.294;2023-03-01T02:48:05;99924.50;;;2.73;80.32
18819;BME280;9537;45.594;9.294;2023-03-01T02:49:18;99931.50;;;2.73;80.54
18819;BME280;9537;45.594;9.294;2023-03-01T02:50:45;99916.78;;;2.71;80.66
18819;BME280;9537;45.594;9.294;2023-03-01T02:52:21;99918.91;;;2.66;80.35
18819;BME280;9537;45.594;9.294;2023-03-01T02:53:33;99920.56;;;2.67;80.17
18819;BME280;9537;45.594;9.294;2023-03-01T02:54:41;99921.06;;;2.73;80.05
18819;BME280;9537;45.594;9.294;2023-03-01T02:55:45;99915.72;;;2.74;80.16
18819;BME280;9537;45.594;9.294;2023-03-01T02:56:46;99917.25;;;2.77;80.17
18819;BME280;9537;45.594;9.294;2023-03-01T02:57:49;99912.28;;;2.74;79.99
18819;BME280;9537;45.594;9.294;2023-03-01T02:58:53;99913.09;;;2.74;80.01
18819;BME280;9537;45.594;9.294;2023-03-01T02:59:56;99904.44;;;2.74;80.08
18819;BME280;9537;45.594;9.294;2023-03-01T03:00:58;99916.78;;;2.71;79.78
18819;BME280;9537;45.594;9.294;2023-03-01T03:02:01;99909.19;;;2.68;80.26
18819;BME280;9537;45.594;9.294;2023-03-01T03:03:03;99907.53;;;2.67;79.92
18819;BME280;9537;45.594;9.294;2023-03-01T03:04:06;99911.78;;;2.68;80.18
18819;BME280;9537;45.594;9.294;2023-03-01T03:05:10;99902.09;;;2.70;79.58
18819;BME280;9537;45.594;9.294;2023-03-01T03:06:12;99905.50;;;2.71;80.13
18819;BME280;9537;45.594;9.294;2023-03-01T03:07:13;99907.28;;;2.70;79.89
18819;BME280;9537;45.594;9.294;2023-03-01T03:08:15;99898.75;;;2.68;80.33
18819;BME280;9537;45.594;9.294;2023-03-01T03:09:24;99899.38;;;2.72;79.69
18819;BME280;9537;45.594;9.294;2023-03-01T03:10:27;99893.28;;;2.71;79.47
18819;BME280;9537;45.594;9.294;2023-03-01T03:11:28;99897.00;;;2.69;79.77
18819;BME280;9537;45.594;9.294;2023-03-01T03:12:31;99895.22;;;2.69;79.76
18819;BME280;9537;45.594;9.294;2023-03-01T03:13:32;99897.09;;;2.67;79.67
18819;BME280;9537;45.594;9.294;2023-03-01T03:14:35;99895.31;;;2.68;79.60
18819;BME280;9537;45.594;9.294;2023-03-01T03:15:36;99895.31;;;2.68;79.22
18819;BME280;9537;45.594;9.294;2023-03-01T03:16:40;99892.59;;;2.69;79.42
18819;BME280;9537;45.594;9.294;2023-03-01T03:17:42;99891.78;;;2.69;79.75
18819;BME280;9537;45.594;9.294;2023-03-01T03:18:44;99896.75;;;2.61;79.95
18819;BME280;9537;45.594;9.294;2023-03-01T03:19:45;99894.00;;;2.62;80.04
18819;BME280;9537;45.594;9.294;2023-03-01T03:20:47;99893.41;;;2.59;80.30
18819;BME280;9537;45.594;9.294;2023-03-01T03:21:53;99896.25;;;2.56;80.37
18819;BME280;9537;45.594;9.294;2023-03-01T03:22:57;99897.06;;;2.56;80.17
18819;BME280;9537;45.594;9.294;2023-03-01T03:23:59;99900.88;;;2.52;80.25
18819;BME280;9537;45.594;9.294;2023-03-01T03:25:00;99895.53;;;2.54;80.29
18819;BME280;9537;45.594;9.294;2023-03-01T03:26:02;99898.13;;;2.54;80.37
18819;BME280;9537;45.594;9.294;2023-03-01T03:27:05;99898.84;;;2.56;80.26
18819;BME280;9537;45.594;9.294;2023-03-01T03:28:07;99902.28;;;2.56;80.16
18819;BME280;9537;45.594;9.294;2023-03-01T03:29:11;99895.19;;;2.58;80.02
18819;BME280;9537;45.594;9.294;2023-03-01T03:30:15;99901.22;;;2.59;79.63
18819;BME280;9537;45.594;9.294;2023-03-01T03:31:18;99896.25;;;2.56;79.37
18819;BME280;9537;45.594;9.294;2023-03-01T03:32:19;99896.59;;;2.51;80.08
18819;BME280;9537;45.594;9.294;2023-03-01T03:33:21;99897.41;;;2.52;79.75
18819;BME280;9537;45.594;9.294;2023-03-01T03:34:22;99892.31;;;2.50;79.52
18819;BME280;9537;45.594;9.294;2023-03-01T03:35:27;99898.13;;;2.54;79.73
18819;BME280;9537;45.594;9.294;2023-03-01T03:36:30;99892.81;;;2.55;79.32
18819;BME280;9537;45.594;9.294;2023-03-01T03:37:32;99899.78;;;2.55;79.64
18819;BME280;9537;45.594;9.294;2023-03-01T03:38:52;99898.25;;;2.52;79.40
18819;BME280;9537;45.594;9.294;2023-03-01T03:39:54;99891.84;;;2.45;79.28
18819;BME280;9537;45.594;9.294;2023-03-01T03:41:00;99889.69;;;2.39;79.75
18819;BME280;9537;45.594;9.294;2023-03-01T03:42:03;99894.91;;;2.39;79.83
18819;BME280;9537;45.594;9.294;2023-03-01T03:43:05;99890.75;;;2.36;79.87
18819;BME280;9537;45.594;9.294;2023-03-01T03:44:07;99886.94;;;2.29;80.22
18819;BME280;9537;45.594;9.294;2023-03-01T03:45:08;99890.97;;;2.33;80.44
18819;BME280;9537;45.594;9.294;2023-03-01T03:46:12;99888.16;;;2.36;80.04
18819;BME280;9537;45.594;9.294;2023-03-01T03:47:13;99890.75;;;2.36;80.42
18819;BME280;9537;45.594;9.294;2023-03-01T03:48:16;99892.63;;;2.34;80.26
18819;BME280;9537;45.594;9.294;2023-03-01T03:49:17;99885.75;;;2.33;80.36
18819;BME280;9537;45.594;9.294;2023-03-01T03:50:19;99885.75;;;2.33;80.09
18819;BME280;9537;45.594;9.294;2023-03-01T03:51:21;99889.19;;;2.34;79.61
18819;BME280;9537;45.594;9.294;2023-03-01T03:52:23;99887.41;;;2.34;79.75
18819;BME280;9537;45.594;9.294;2023-03-01T03:53:26;99887.41;;;2.34;80.00
18819;BME280;9537;45.594;9.294;2023-03-01T03:54:28;99879.97;;;2.30;79.94
18819;BME280;9537;45.594;9.294;2023-03-01T03:55:29;99885.16;;;2.30;80.15
18819;BME280;9537;45.594;9.294;2023-03-01T03:56:31;99889.56;;;2.29;79.83
18819;BME280;9537;45.594;9.294;2023-03-01T03:57:32;99886.94;;;2.29;79.83
18819;BME280;9537;45.594;9.294;2023-03-01T03:58:35;99878.41;;;2.27;79.31
18819;BME280;9537;45.594;9.294;2023-03-01T03:59:36;99881.84;;;2.28;79.67
18819;BME280;9537;45.594;9.294;2023-03-01T04:00:40;99884.69;;;2.24;79.40
18819;BME280;9537;45.594;9.294;2023-03-01T04:01:43;99880.28;;;2.25;79.12
18819;BME280;9537;45.594;9.294;2023-03-01T04:02:47;99869.88;;;2.25;79.18
18819;BME280;9537;45.594;9.294;2023-03-01T04:03:48;99879.34;;;2.26;79.35
18819;BME280;9537;45.594;9.294;2023-03-01T04:04:55;99874.13;;;2.26;79.33
18819;BME280;9537;45.594;9.294;2023-03-01T04:05:57;99876.03;;;2.24;79.99
18819;BME280;9537;45.594;9.294;2023-03-01T04:06:59;99873.66;;;2.21;79.72
18819;BME280;9537;45.594;9.294;2023-03-01T04:08:00;99869.28;;;2.21;79.89
18819;BME280;9537;45.594;9.294;2023-03-01T04:09:07;99875.22;;;2.23;79.88
18819;BME280;9537;45.594;9.294;2023-03-01T04:10:12;99871.06;;;2.21;80.44
18819;BME280;9537;45.594;9.294;2023-03-01T04:11:13;99872.69;;;2.22;80.04
18819;BME280;9537;45.594;9.294;2023-03-01T04:12:27;99877.41;;;2.17;80.60
18819;BME280;9537;45.594;9.294;2023-03-01T04:13:28;99878.03;;;2.20;80.07
18819;BME280;9537;45.594;9.294;2023-03-01T04:14:30;99872.69;;;2.22;79.87
18819;BME280;9537;45.594;9.294;2023-03-01T04:15:31;99875.22;;;2.23;79.48
18819;BME280;9537;45.594;9.294;2023-03-01T04:16:34;99866.66;;;2.21;79.58
18819;BME280;9537;45.594;9.294;2023-03-01T04:17:36;99870.09;;;2.22;79.43
18819;BME280;9537;45.594;9.294;2023-03-01T04:18:40;99868.31;;;2.22;78.91
18819;BME280;9537;45.594;9.294;2023-03-01T04:19:41;99873.44;;;2.24;79.39
18819;BME280;9537;45.594;9.294;2023-03-01T04:20:45;99868.44;;;2.21;79.59
18819;BME280;9537;45.594;9.294;2023-03-01T04:21:46;99869.38;;;2.20;79.45
18819;BME280;9537;45.594;9.294;2023-03-01T04:22:48;99868.78;;;2.16;79.96
18819;BME280;9537;45.594;9.294;2023-03-01T04:23:49;99864.53;;;2.15;79.27
18819;BME280;9537;45.594;9.294;2023-03-01T04:24:53;99875.03;;;2.14;79.34
18819;BME280;9537;45.594;9.294;2023-03-01T04:25:56;99872.56;;;2.12;79.81
18819;BME280;9537;45.594;9.294;2023-03-01T04:26:58;99879.44;;;2.13;79.86
18819;BME280;9537;45.594;9.294;2023-03-01T04:27:59;99867.94;;;2.16;79.89
18819;BME280;9537;45.594;9.294;2023-03-01T04:29:01;99872.22;;;2.17;79.83
18819;BME280;9537;45.594;9.294;2023-03-01T04:30:04;99875.16;;;2.12;79.48
18819;BME280;9537;45.594;9.294;2023-03-01T04:31:07;99866.63;;;2.10;78.88
18819;BME280;9537;45.594;9.294;2023-03-01T04:32:13;99866.63;;;2.10;79.28
18819;BME280;9537;45.594;9.294;2023-03-01T04:33:18;99871.00;;;2.10;79.14
18819;BME280;9537;45.594;9.294;2023-03-01T04:34:20;99864.72;;;2.01;79.00
18819;BME280;9537;45.594;9.294;2023-03-01T04:35:21;99861.16;;;2.02;78.49
18819;BME280;9537;45.594;9.294;2023-03-01T04:36:26;99862.78;;;2.03;78.68
18819;BME280;9537;45.594;9.294;2023-03-01T04:37:27;99862.78;;;2.03;78.61
18819;BME280;9537;45.594;9.294;2023-03-01T04:38:30;99867.31;;;2.01;79.10
18819;BME280;9537;45.594;9.294;2023-03-01T04:39:31;99862.94;;;2.01;79.46
18819;BME280;9537;45.594;9.294;2023-03-01T04:40:34;99860.66;;;1.97;79.34
18819;BME280;9537;45.594;9.294;2023-03-01T04:41:35;99861.59;;;1.96;79.48
18819;BME280;9537;45.594;9.294;2023-03-01T04:42:37;99862.44;;;1.96;79.20
18819;BME280;9537;45.594;9.294;2023-03-01T04:43:38;99860.66;;;1.97;79.34
18819;BME280;9537;45.594;9.294;2023-03-01T04:44:40;99854.75;;;1.95;80.01
18819;BME280;9537;45.594;9.294;2023-03-01T04:45:41;99859.09;;;1.94;79.10
18819;BME280;9537;45.594;9.294;2023-03-01T04:46:44;99860.78;;;1.95;79.44
18819;BME280;9537;45.594;9.294;2023-03-01T04:47:46;99861.47;;;1.97;79.18
18819;BME280;9537;45.594;9.294;2023-03-01T04:48:50;99860.56;;;1.98;79.02
18819;BME280;9537;45.594;9.294;2023-03-01T04:49:51;99862.19;;;1.99;79.39
18819;BME280;9537;45.594;9.294;2023-03-01T04:50:53;99865.75;;;1.98;78.95
18819;BME280;9537;45.594;9.294;2023-03-01T04:51:54;99860.56;;;1.98;79.37
18819;BME280;9537;45.594;9.294;2023-03-01T04:52:58;99859.94;;;1.95;80.02
18819;BME280;9537;45.594;9.294;2023-03-01T04:53:59;99862.66;;;1.93;79.77
18819;BME280;9537;45.594;9.294;2023-03-01T04:55:02;99866.44;;;1.89;79.59
18819;BME280;9537;45.594;9.294;2023-03-01T04:56:04;99869.91;;;1.77;79.89
18819;BME280;9537;45.594;9.294;2023-03-01T04:57:07;99870.56;;;1.80;79.54
18819;BME280;9537;45.594;9.294;2023-03-01T04:58:08;99867.00;;;1.82;79.05
18819;BME280;9537;45.594;9.294;2023-03-01T04:59:10;99869.59;;;1.82;79.00
18819;BME280;9537;45.594;9.294;2023-03-01T05:00:14;99866.03;;;1.83;80.11
18819;BME280;9537;45.594;9.294;2023-03-01T05:01:22;99867.59;;;1.85;79.50
18819;BME280;9537;45.594;9.294;2023-03-01T05:02:23;99867.59;;;1.85;79.50
18819;BME280;9537;45.594;9.294;2023-03-01T05:03:25;99868.31;;;1.87;79.38
18819;BME280;9537;45.594;9.294;2023-03-01T05:04:28;99865.72;;;1.87;79.96
18819;BME280;9537;45.594;9.294;2023-03-01T05:05:31;99863.19;;;1.86;79.41
18819;BME280;9537;45.594;9.294;2023-03-01T05:06:33;99869.47;;;1.83;79.60
18819;BME280;9537;45.594;9.294;2023-03-01T05:07:35;99863.34;;;1.84;79.48
18819;BME280;9537;45.594;9.294;2023-03-01T05:08:36;99869.28;;;1.86;79.82
18819;BME280;9537;45.594;9.294;2023-03-01T05:09:39;99863.84;;;1.89;79.42
18819;BME280;9537;45.594;9.294;2023-03-01T05:10:40;99865.59;;;1.89;79.13
18819;BME280;9537;45.594;9.294;2023-03-01T05:11:42;99865.72;;;1.87;79.68
18819;BME280;9537;45.594;9.294;2023-03-01T05:12:44;99871.38;;;1.81;79.58
18819;BME280;9537;45.594;9.294;2023-03-01T05:13:47;99867.94;;;1.80;79.30
18819;BME280;9537;45.594;9.294;2023-03-01T05:14:50;99869.59;;;1.82;79.30
18819;BME280;9537;45.594;9.294;2023-03-01T05:15:54;99866.25;;;1.79;79.76
18819;BME280;9537;45.594;9.294;2023-03-01T05:16:57;99873.16;;;1.80;79.79
18819;BME280;9537;45.594;9.294;2023-03-01T05:18:04;99876.81;;;1.78;79.31
18819;BME280;9537;45.594;9.294;2023-03-01T05:19:11;99868.34;;;1.74;80.03
18819;BME280;9537;45.594;9.294;2023-03-01T05:20:17;99871.69;;;1.76;80.14
18819;BME280;9537;45.594;9.294;2023-03-01T05:21:23;99877.44;;;1.69;79.94
18819;BME280;9537;45.594;9.294;2023-03-01T05:22:24;99875.94;;;1.66;79.21
18819;BME280;9537;45.594;9.294;2023-03-01T05:23:26;99877.44;;;1.69;79.63
18819;BME280;9537;45.594;9.294;2023-03-01T05:24:28;99870.50;;;1.69;79.06
18819;BME280;9537;45.594;9.294;2023-03-01T05:25:30;99871.09;;;1.73;79.08
18819;BME280;9537;45.594;9.294;2023-03-01T05:26:33;99871.19;;;1.71;79.74
18819;BME280;9537;45.594;9.294;2023-03-01T05:27:35;99862.47;;;1.72;79.72
18819;BME280;9537;45.594;9.294;2023-03-01T05:28:37;99872.88;;;1.72;79.70
18819;BME280;9537;45.594;9.294;2023-03-01T05:29:39;99864.34;;;1.70;79.66
18819;BME280;9537;45.594;9.294;2023-03-01T05:30:40;99870.72;;;1.66;79.41
18819;BME280;9537;45.594;9.294;2023-03-01T05:31:43;99862.19;;;1.64;79.55
18819;BME280;9537;45.594;9.294;2023-03-01T05:32:45;99868.13;;;1.66;79.25
18819;BME280;9537;45.594;9.294;2023-03-01T05:33:48;99869.97;;;1.64;79.36
18819;BME280;9537;45.594;9.294;2023-03-01T05:34:49;99863.75;;;1.54;79.64
18819;BME280;9537;45.594;9.294;2023-03-01T05:35:54;99860.47;;;1.52;79.75
18819;BME280;9537;45.594;9.294;2023-03-01T05:36:56;99864.72;;;1.53;79.89
18819;BME280;9537;45.594;9.294;2023-03-01T05:37:58;99860.78;;;1.47;79.83
18819;BME280;9537;45.594;9.294;2023-03-01T05:38:59;99871.69;;;1.52;80.29
18819;BME280;9537;45.594;9.294;2023-03-01T05:40:01;99872.41;;;1.54;80.21
18819;BME280;9537;45.594;9.294;2023-03-01T05:41:04;99872.63;;;1.51;79.53
18819;BME280;9537;45.594;9.294;2023-03-01T05:42:06;99884.13;;;1.49;79.72
18819;BME280;9537;45.594;9.294;2023-03-01T05:43:09;99875.22;;;1.51;80.20
18819;BME280;9537;45.594;9.294;2023-03-01T05:44:12;99882.81;;;1.54;80.40
18819;BME280;9537;45.594;9.294;2023-03-01T05:45:13;99878.47;;;1.55;79.93